createdAt,value
2018-11-12T00:00:23.344Z,13.1
2018-11-12T00:01:03.744Z,13.03
2018-11-12T00:01:44.130Z,12.96
2018-11-12T00:02:24.559Z,12.92
2018-11-12T00:03:05.008Z,12.91
2018-11-12T00:03:45.459Z,12.89
2018-11-12T00:04:25.880Z,12.81
2018-11-12T00:05:06.337Z,12.8
2018-11-12T00:05:46.799Z,12.92
2018-11-12T00:06:27.222Z,12.84
2018-11-12T00:07:07.584Z,12.87
2018-11-12T00:07:48.074Z,12.8
2018-11-12T00:08:28.504Z,12.91
2018-11-12T00:09:08.935Z,12.91
2018-11-12T00:09:49.311Z,12.96
2018-11-12T00:10:29.704Z,12.89
2018-11-12T00:11:10.158Z,12.98
2018-11-12T00:11:50.511Z,12.89
2018-11-12T00:12:30.958Z,12.95
2018-11-12T00:13:11.422Z,12.99
2018-11-12T00:13:51.903Z,12.96
2018-11-12T00:14:32.259Z,12.98
2018-11-12T00:16:31.935Z,12.96
2018-11-12T00:17:13.590Z,12.95
2018-11-12T00:17:54.083Z,12.95
2018-11-12T00:18:34.381Z,12.94
2018-11-12T00:19:14.821Z,12.91
2018-11-12T00:19:55.238Z,12.99
2018-11-12T00:20:35.741Z,12.95
2018-11-12T00:21:16.225Z,12.94
2018-11-12T00:21:56.908Z,12.96
2018-11-12T00:22:37.200Z,12.98
2018-11-12T00:23:17.595Z,12.94
2018-11-12T00:23:58.023Z,12.95
2018-11-12T00:24:38.406Z,12.98
2018-11-12T00:25:18.839Z,12.95
2018-11-12T00:25:59.198Z,12.94
2018-11-12T00:26:39.833Z,12.95
2018-11-12T00:27:20.205Z,12.95
2018-11-12T00:28:00.533Z,12.98
2018-11-12T00:28:43.788Z,12.98
2018-11-12T00:29:24.297Z,12.84
2018-11-12T00:30:04.653Z,12.84
2018-11-12T00:30:45.038Z,12.98
2018-11-12T00:31:25.472Z,12.89
2018-11-12T00:32:05.875Z,12.96
2018-11-12T00:32:46.274Z,12.88
2018-11-12T00:33:26.648Z,12.87
2018-11-12T00:34:07.124Z,12.91
2018-11-12T00:34:47.625Z,12.91
2018-11-12T00:35:28.057Z,12.94
2018-11-12T00:40:39.825Z,13.04
2018-11-12T00:41:20.162Z,13.1
2018-11-12T00:42:00.612Z,13.03
2018-11-12T00:42:41.055Z,12.96
2018-11-12T00:43:21.571Z,12.99
2018-11-12T00:44:01.863Z,13.07
2018-11-12T00:44:42.310Z,12.94
2018-11-12T00:45:22.636Z,12.96
2018-11-12T00:46:03.063Z,12.98
2018-11-12T00:46:43.429Z,12.98
2018-11-12T00:47:23.874Z,13.01
2018-11-12T00:48:04.226Z,12.87
2018-11-12T00:48:44.687Z,12.84
2018-11-12T00:49:25.025Z,12.98
2018-11-12T00:50:05.511Z,12.94
2018-11-12T00:50:45.844Z,12.89
2018-11-12T00:51:26.285Z,12.98
2018-11-12T00:52:06.692Z,12.95
2018-11-12T00:52:47.097Z,12.89
2018-11-12T00:53:27.472Z,12.85
2018-11-12T00:54:07.883Z,12.91
2018-11-12T00:54:48.299Z,12.88
2018-11-12T00:55:28.814Z,12.92
2018-11-12T00:56:09.266Z,12.8
2018-11-12T00:56:49.598Z,12.81
2018-11-12T00:57:29.964Z,12.89
2018-11-12T00:58:10.456Z,12.81
2018-11-12T00:58:50.837Z,12.87
2018-11-12T00:59:31.224Z,12.81
2018-11-12T01:00:11.567Z,12.81
2018-11-12T01:00:51.992Z,12.81
2018-11-12T01:01:32.862Z,12.8
2018-11-12T01:02:13.327Z,12.79
2018-11-12T01:02:53.698Z,12.85
2018-11-12T01:03:34.211Z,12.79
2018-11-12T01:04:15.646Z,12.79
2018-11-12T01:04:55.968Z,12.81
2018-11-12T01:05:36.414Z,12.79
2018-11-12T01:06:17.162Z,12.79
2018-11-12T01:06:57.537Z,12.8
2018-11-12T01:07:37.974Z,12.77
2018-11-12T01:08:18.273Z,12.91
2018-11-12T01:10:07.788Z,12.87
2018-11-12T01:14:19.550Z,13.03
2018-11-12T01:15:00.298Z,13.01
2018-11-12T01:15:40.945Z,12.92
2018-11-12T01:16:21.532Z,12.91
2018-11-12T01:17:01.775Z,12.81
2018-11-12T01:17:42.143Z,12.89
2018-11-12T01:18:22.578Z,12.88
2018-11-12T01:19:03.025Z,12.85
2018-11-12T01:19:43.392Z,12.81
2018-11-12T01:20:23.854Z,12.84
2018-11-12T01:21:04.236Z,12.79
2018-11-12T01:21:44.748Z,12.77
2018-11-12T01:22:25.117Z,12.77
2018-11-12T01:23:05.572Z,12.77
2018-11-12T01:23:45.945Z,12.8
2018-11-12T01:24:26.403Z,12.77
2018-11-12T01:25:06.955Z,12.81
2018-11-12T01:25:47.422Z,12.77
2018-11-12T01:26:27.800Z,12.77
2018-11-12T01:27:08.198Z,12.8
2018-11-12T01:27:48.648Z,12.8
2018-11-12T01:28:29.208Z,12.92
2018-11-12T01:29:09.512Z,12.84
2018-11-12T01:29:49.936Z,12.85
2018-11-12T01:30:30.570Z,12.95
2018-11-12T01:31:10.809Z,12.94
2018-11-12T01:31:51.275Z,12.98
2018-11-12T01:32:31.701Z,12.98
2018-11-12T01:33:12.115Z,12.99
2018-11-12T01:33:52.545Z,13.03
2018-11-12T01:34:32.983Z,13.07
2018-11-12T01:35:13.391Z,13.09
2018-11-12T01:35:53.785Z,13.13
2018-11-12T01:36:34.233Z,13.17
2018-11-12T01:37:14.594Z,13.12
2018-11-12T01:37:54.977Z,13.21
2018-11-12T01:38:35.439Z,13.22
2018-11-12T01:39:15.838Z,13.21
2018-11-12T01:39:56.289Z,13.22
2018-11-12T01:40:36.724Z,13.27
2018-11-12T01:41:17.033Z,13.43
2018-11-12T01:41:57.497Z,13.38
2018-11-12T01:42:37.861Z,13.5
2018-11-12T01:43:18.277Z,13.43
2018-11-12T01:43:58.691Z,13.5
2018-11-12T01:44:39.125Z,13.47
2018-11-12T01:45:19.998Z,13.48
2018-11-12T01:45:59.988Z,13.48
2018-11-12T01:46:40.399Z,13.51
2018-11-12T01:47:20.940Z,13.53
2018-11-12T01:48:01.240Z,13.55
2018-11-12T01:48:41.712Z,13.51
2018-11-12T01:49:22.072Z,13.61
2018-11-12T01:50:02.472Z,13.55
2018-11-12T01:50:42.947Z,13.46
2018-11-12T01:51:23.415Z,13.43
2018-11-12T01:52:03.785Z,13.36
2018-11-12T01:52:44.120Z,13.28
2018-11-12T01:53:24.844Z,13.27
2018-11-12T01:54:05.198Z,13.25
2018-11-12T01:54:45.601Z,13.19
2018-11-12T01:55:26.008Z,13.14
2018-11-12T01:56:06.447Z,13.1
2018-11-12T01:56:46.883Z,13.07
2018-11-12T01:57:27.282Z,13.1
2018-11-12T01:58:07.841Z,13.1
2018-11-12T01:58:48.283Z,13.03
2018-11-12T01:59:28.781Z,13.04
2018-11-12T02:00:09.627Z,12.99
2018-11-12T02:00:50.281Z,13.04
2018-11-12T02:01:30.717Z,13.01
2018-11-12T02:02:11.067Z,13.03
2018-11-12T02:02:51.541Z,12.96
2018-11-12T02:03:32.248Z,12.98
2018-11-12T02:04:12.525Z,13.01
2018-11-12T02:04:52.989Z,13.01
2018-11-12T02:05:33.382Z,12.98
2018-11-12T02:06:13.692Z,12.99
2018-11-12T02:06:54.336Z,12.95
2018-11-12T02:07:34.693Z,12.94
2018-11-12T02:08:15.320Z,12.99
2018-11-12T02:08:55.643Z,12.95
2018-11-12T02:09:36.100Z,12.98
2018-11-12T02:10:16.493Z,13.01
2018-11-12T02:10:57.069Z,12.95
2018-11-12T02:11:37.472Z,12.99
2018-11-12T02:12:17.919Z,12.92
2018-11-12T02:12:58.262Z,12.94
2018-11-12T02:13:39.062Z,12.91
2018-11-12T02:14:19.692Z,12.89
2018-11-12T02:14:59.801Z,12.88
2018-11-12T02:15:40.210Z,12.81
2018-11-12T02:16:20.577Z,12.77
2018-11-12T02:17:00.951Z,12.77
2018-11-12T02:17:41.396Z,12.79
2018-11-12T02:18:21.747Z,12.8
2018-11-12T02:19:02.223Z,12.74
2018-11-12T02:19:42.658Z,12.76
2018-11-12T02:20:23.179Z,12.73
2018-11-12T02:21:03.938Z,12.74
2018-11-12T02:21:44.318Z,12.7
2018-11-12T02:22:24.716Z,12.76
2018-11-12T02:23:05.073Z,12.71
2018-11-12T02:23:45.773Z,12.74
2018-11-12T02:24:25.977Z,12.71
2018-11-12T02:25:06.358Z,12.67
2018-11-12T02:25:46.899Z,12.67
2018-11-12T02:26:27.171Z,12.67
2018-11-12T02:27:07.597Z,12.7
2018-11-12T02:27:48.055Z,12.61
2018-11-12T02:28:28.476Z,12.62
2018-11-12T02:30:32.855Z,12.61
2018-11-12T02:32:04.869Z,12.56
2018-11-12T02:32:45.294Z,12.55
2018-11-12T02:33:25.865Z,12.56
2018-11-12T02:34:06.265Z,12.56
2018-11-12T02:34:46.619Z,12.54
2018-11-12T02:35:27.115Z,12.59
2018-11-12T02:36:07.535Z,12.56
2018-11-12T02:36:47.985Z,12.52
2018-11-12T02:37:28.448Z,12.52
2018-11-12T02:38:08.984Z,12.44
2018-11-12T02:38:49.339Z,12.54
2018-11-12T02:39:29.776Z,12.48
2018-11-12T02:40:10.213Z,12.48
2018-11-12T02:40:50.566Z,12.41
2018-11-12T02:41:31.048Z,12.41
2018-11-12T02:42:11.409Z,12.43
2018-11-12T02:42:51.786Z,12.37
2018-11-12T02:43:32.183Z,12.3
2018-11-12T02:44:12.768Z,12.3
2018-11-12T02:44:52.980Z,12.3
2018-11-12T02:45:33.475Z,12.36
2018-11-12T02:46:13.825Z,12.36
2018-11-12T02:46:54.244Z,12.31
2018-11-12T02:47:34.651Z,12.37
2018-11-12T02:48:15.078Z,12.3
2018-11-12T02:48:55.496Z,12.34
2018-11-12T02:49:35.913Z,12.34
2018-11-12T02:50:16.410Z,12.33
2018-11-12T02:50:56.832Z,12.37
2018-11-12T02:51:37.174Z,12.4
2018-11-12T02:52:17.652Z,12.38
2018-11-12T02:52:58.075Z,12.44
2018-11-12T02:53:38.421Z,12.46
2018-11-12T02:54:18.893Z,12.46
2018-11-12T02:54:59.593Z,12.46
2018-11-12T02:55:39.941Z,12.58
2018-11-12T02:56:20.290Z,12.63
2018-11-12T02:57:00.675Z,12.56
2018-11-12T02:57:41.217Z,12.67
2018-11-12T02:58:21.627Z,12.74
2018-11-12T02:59:01.975Z,12.76
2018-11-12T02:59:42.357Z,12.73
2018-11-12T03:00:22.795Z,12.73
2018-11-12T03:01:03.225Z,12.71
2018-11-12T03:01:43.613Z,12.73
2018-11-12T03:02:24.003Z,12.76
2018-11-12T03:03:04.446Z,12.73
2018-11-12T03:03:44.798Z,12.73
2018-11-12T03:04:25.261Z,12.71
2018-11-12T03:05:05.659Z,12.7
2018-11-12T03:05:46.005Z,12.66
2018-11-12T03:06:26.397Z,12.59
2018-11-12T03:07:06.896Z,12.59
2018-11-12T03:07:47.213Z,12.61
2018-11-12T03:08:27.603Z,12.55
2018-11-12T03:09:08.022Z,12.59
2018-11-12T03:09:48.400Z,12.54
2018-11-12T03:10:28.837Z,12.54
2018-11-12T03:11:09.257Z,12.55
2018-11-12T03:11:49.752Z,12.56
2018-11-12T03:12:30.092Z,12.51
2018-11-12T03:13:10.564Z,12.55
2018-11-12T03:13:50.940Z,12.56
2018-11-12T03:14:31.379Z,12.54
2018-11-12T03:15:11.833Z,12.49
2018-11-12T03:17:09.355Z,12.43
2018-11-12T03:17:54.383Z,12.43
2018-11-12T03:18:34.785Z,12.43
2018-11-12T03:19:15.237Z,12.4
2018-11-12T03:19:55.611Z,12.36
2018-11-12T03:20:36.032Z,12.37
2018-11-12T03:21:16.424Z,12.38
2018-11-12T03:21:56.854Z,12.48
2018-11-12T03:22:37.288Z,12.46
2018-11-12T03:23:17.667Z,12.51
2018-11-12T03:23:58.023Z,12.48
2018-11-12T03:24:38.433Z,12.48
2018-11-12T03:25:18.839Z,12.44
2018-11-12T03:25:59.224Z,12.4
2018-11-12T03:26:39.677Z,12.51
2018-11-12T03:27:20.051Z,12.41
2018-11-12T03:28:00.482Z,12.52
2018-11-12T03:28:40.909Z,12.44
2018-11-12T03:29:21.292Z,12.49
2018-11-12T03:30:01.714Z,12.46
2018-11-12T03:30:42.135Z,12.43
2018-11-12T03:31:22.558Z,12.51
2018-11-12T03:32:03.003Z,12.48
2018-11-12T03:32:43.380Z,12.48
2018-11-12T03:33:23.800Z,12.46
2018-11-12T03:44:37.979Z,12.23
2018-11-12T03:45:19.138Z,12.26
2018-11-12T03:45:59.551Z,12.12
2018-11-12T03:46:39.988Z,12.13
2018-11-12T03:47:20.349Z,12.13
2018-11-12T03:48:00.725Z,12.26
2018-11-12T03:48:41.169Z,12.12
2018-11-12T03:49:21.548Z,12.07
2018-11-12T03:51:09.534Z,12.12
2018-11-12T03:51:49.766Z,12.13
2018-11-12T03:52:30.175Z,12.18
2018-11-12T03:53:10.549Z,12.08
2018-11-12T03:53:50.947Z,12.11
2018-11-12T03:54:31.379Z,12.12
2018-11-12T03:55:11.763Z,12.18
2018-11-12T03:55:52.187Z,12.04
2018-11-12T03:56:32.591Z,12.11
2018-11-12T03:58:24.917Z,12.04
2018-11-12T03:59:05.529Z,12.04
2018-11-12T03:59:45.924Z,12.08
2018-11-12T04:00:26.430Z,12.13
2018-11-12T04:01:06.731Z,12.15
2018-11-12T04:01:47.105Z,12.16
2018-11-12T04:02:27.499Z,12.19
2018-11-12T04:03:07.914Z,12.11
2018-11-12T04:03:48.313Z,12.07
2018-11-12T04:04:28.698Z,12.16
2018-11-12T04:05:09.133Z,12.13
2018-11-12T04:05:49.567Z,12.13
2018-11-12T04:06:29.965Z,12.15
2018-11-12T04:07:10.347Z,12.21
2018-11-12T04:07:50.736Z,12.04
2018-11-12T04:08:31.145Z,12.15
2018-11-12T04:09:11.557Z,12.12
2018-11-12T04:09:51.936Z,12.03
2018-11-12T04:10:32.359Z,11.93
2018-11-12T04:11:12.753Z,12
2018-11-12T04:11:53.129Z,11.94
2018-11-12T04:12:33.519Z,11.94
2018-11-12T04:13:13.965Z,12.07
2018-11-12T04:13:54.332Z,11.98
2018-11-12T04:14:34.738Z,11.94
2018-11-12T04:15:15.132Z,11.9
2018-11-12T04:15:55.537Z,11.98
2018-11-12T04:16:35.936Z,12.11
2018-11-12T04:17:16.411Z,12.04
2018-11-12T04:19:31.874Z,12.08
2018-11-12T04:20:12.284Z,12.01
2018-11-12T04:20:52.574Z,12.12
2018-11-12T04:21:32.939Z,12.07
2018-11-12T04:22:13.383Z,12.08
2018-11-12T04:22:53.912Z,12.03
2018-11-12T04:23:34.268Z,12.12
2018-11-12T04:24:14.641Z,12.12
2018-11-12T04:24:55.039Z,12.18
2018-11-12T04:25:35.474Z,12.12
2018-11-12T04:26:15.876Z,12.15
2018-11-12T04:28:04.455Z,12.21
2018-11-12T04:28:44.097Z,12.29
2018-11-12T05:06:02.706Z,11.78
2018-11-12T05:06:43.638Z,11.72
2018-11-12T05:07:24.088Z,11.78
2018-11-12T05:08:04.354Z,11.75
2018-11-12T05:08:44.763Z,11.81
2018-11-12T05:09:25.190Z,11.81
2018-11-12T05:10:05.533Z,11.77
2018-11-12T05:10:45.891Z,11.77
2018-11-12T05:11:26.275Z,11.82
2018-11-12T05:12:06.731Z,11.77
2018-11-12T05:12:47.111Z,11.74
2018-11-12T05:13:27.528Z,11.77
2018-11-12T05:14:07.971Z,11.74
2018-11-12T05:14:48.395Z,11.72
2018-11-12T05:15:28.879Z,11.74
2018-11-12T05:16:09.672Z,11.81
2018-11-12T05:16:50.141Z,11.9
2018-11-12T05:17:30.447Z,11.87
2018-11-12T05:18:10.926Z,11.77
2018-11-12T05:18:51.264Z,11.84
2018-11-12T05:19:31.686Z,11.7
2018-11-12T05:20:12.055Z,11.82
2018-11-12T05:20:52.460Z,11.84
2018-11-12T05:21:32.896Z,11.81
2018-11-12T05:22:13.266Z,11.85
2018-11-12T05:22:53.737Z,11.84
2018-11-12T05:23:34.145Z,11.79
2018-11-12T05:24:14.527Z,11.74
2018-11-12T05:24:54.960Z,11.81
2018-11-12T05:25:35.329Z,11.74
2018-11-12T05:26:15.870Z,11.84
2018-11-12T05:26:56.267Z,11.81
2018-11-12T05:27:36.689Z,11.82
2018-11-12T05:28:17.111Z,11.93
2018-11-12T05:28:57.668Z,11.84
2018-11-12T05:29:38.163Z,11.82
2018-11-12T05:30:18.507Z,11.81
2018-11-12T05:30:58.924Z,11.79
2018-11-12T05:31:39.346Z,11.88
2018-11-12T05:32:19.781Z,11.78
2018-11-12T05:33:00.210Z,11.85
2018-11-12T05:33:40.634Z,11.84
2018-11-12T05:34:21.032Z,11.88
2018-11-12T05:35:01.434Z,11.97
2018-11-12T05:35:42.152Z,11.94
2018-11-12T05:36:22.530Z,12.03
2018-11-12T05:37:03.323Z,11.96
2018-11-12T05:37:43.753Z,11.98
2018-11-12T05:38:24.199Z,12.03
2018-11-12T05:39:04.493Z,11.94
2018-11-12T05:39:44.883Z,12.05
2018-11-12T05:40:25.294Z,12.01
2018-11-12T05:41:05.715Z,12.13
2018-11-12T05:41:46.095Z,12.12
2018-11-12T05:42:26.529Z,12.15
2018-11-12T05:43:06.900Z,12.15
2018-11-12T05:43:47.322Z,12.16
2018-11-12T05:44:27.778Z,12.25
2018-11-12T05:45:08.173Z,12.34
2018-11-12T05:45:48.596Z,12.33
2018-11-12T05:46:29.000Z,12.34
2018-11-12T05:47:09.448Z,12.33
2018-11-12T05:53:23.780Z,12.48
2018-11-12T05:54:06.667Z,12.52
2018-11-12T05:54:46.975Z,12.46
2018-11-12T05:55:27.405Z,12.56
2018-11-12T05:56:07.875Z,12.54
2018-11-12T05:56:48.245Z,12.51
2018-11-12T05:57:28.710Z,12.56
2018-11-12T05:58:09.082Z,12.49
2018-11-12T05:58:49.985Z,12.58
2018-11-12T05:59:30.093Z,12.52
2018-11-12T06:00:10.484Z,12.52
2018-11-12T06:00:51.466Z,12.52
2018-11-12T06:01:31.880Z,12.52
2018-11-12T06:02:12.345Z,12.58
2018-11-12T06:02:52.887Z,12.54
2018-11-12T06:03:33.301Z,12.62
2018-11-12T06:04:13.632Z,12.58
2018-11-12T06:04:54.053Z,12.7
2018-11-12T06:05:34.456Z,12.67
2018-11-12T06:06:15.670Z,12.59
2018-11-12T06:06:56.028Z,12.61
2018-11-12T06:07:36.522Z,12.62
2018-11-12T06:08:17.094Z,12.58
2018-11-12T06:08:57.513Z,12.7
2018-11-12T06:09:37.791Z,12.58
2018-11-12T06:10:18.384Z,12.63
2018-11-12T06:10:58.796Z,12.63
2018-11-12T06:11:39.232Z,12.58
2018-11-12T06:12:19.838Z,12.55
2018-11-12T06:13:00.129Z,12.63
2018-11-12T06:13:40.635Z,12.58
2018-11-12T06:14:21.206Z,12.59
2018-11-12T06:15:01.560Z,12.56
2018-11-12T06:15:42.190Z,12.56
2018-11-12T06:16:22.635Z,12.56
2018-11-12T06:17:03.325Z,12.41
2018-11-12T06:17:43.736Z,12.48
2018-11-12T06:18:24.298Z,12.51
2018-11-12T06:19:04.688Z,12.52
2018-11-12T06:19:45.065Z,12.43
2018-11-12T06:20:25.667Z,12.4
2018-11-12T06:21:05.939Z,12.36
2018-11-12T06:21:46.310Z,12.4
2018-11-12T06:22:26.822Z,12.49
2018-11-12T06:23:07.366Z,12.52
2018-11-12T06:23:47.729Z,12.51
2018-11-12T06:24:28.443Z,12.56
2018-11-12T06:25:09.687Z,12.55
2018-11-12T06:25:51.150Z,12.59
2018-11-12T06:26:38.594Z,12.59
2018-11-12T06:27:25.452Z,12.63
2018-11-12T06:28:08.838Z,12.56
2018-11-12T06:28:49.749Z,12.61
2018-11-12T06:29:30.166Z,12.58
2018-11-12T06:30:10.736Z,12.61
2018-11-12T06:30:51.219Z,12.62
2018-11-12T06:31:31.874Z,12.71
2018-11-12T06:32:12.246Z,12.76
2018-11-12T06:32:52.714Z,12.7
2018-11-12T06:33:33.395Z,12.74
2018-11-12T06:34:59.779Z,12.73
2018-11-12T06:35:40.594Z,12.73
2018-11-12T06:36:21.331Z,12.79
2018-11-12T06:37:02.929Z,12.79
2018-11-12T06:37:43.287Z,12.87
2018-11-12T06:38:25.045Z,12.98
2018-11-12T06:39:08.493Z,12.98
2018-11-12T06:39:56.169Z,12.95
2018-11-12T06:40:37.784Z,13.07
2018-11-12T06:41:18.323Z,13.17
2018-11-12T06:41:59.110Z,13.17
2018-11-12T06:42:44.449Z,13.24
2018-11-12T06:43:24.911Z,13.28
2018-11-12T06:44:06.981Z,13.22
2018-11-12T06:45:04.091Z,13.25
2018-11-12T06:49:28.970Z,13.38
2018-11-12T06:51:04.573Z,13.32
2018-11-12T06:51:57.934Z,13.48
2018-11-12T06:52:52.141Z,13.57
2018-11-12T06:53:47.040Z,13.57
2018-11-12T06:54:42.076Z,13.68
2018-11-12T06:55:38.859Z,13.86
2018-11-12T06:56:34.399Z,13.83
2018-11-12T06:57:26.908Z,13.93
2018-11-12T06:58:20.983Z,14.02
2018-11-12T06:59:16.138Z,13.99
2018-11-12T07:00:08.773Z,13.98
2018-11-12T07:01:03.303Z,14.01
2018-11-12T07:02:57.988Z,13.99
2018-11-12T07:05:07.301Z,13.96
2018-11-12T07:06:05.915Z,14.05
2018-11-12T07:07:13.603Z,14.01
2018-11-12T07:08:14.187Z,14.09
2018-11-12T07:09:11.912Z,14.06
2018-11-12T07:10:15.332Z,13.94
2018-11-12T07:11:15.063Z,13.98
2018-11-12T07:12:17.768Z,13.93
2018-11-12T07:13:26.998Z,13.88
2018-11-12T07:14:49.546Z,13.88
2018-11-12T07:16:03.991Z,13.91
2018-11-12T07:17:10.498Z,13.94
2018-11-12T07:18:08.786Z,14.01
2018-11-12T07:19:09.658Z,14.05
2018-11-12T07:20:14.476Z,14.11
2018-11-12T07:21:07.208Z,14.16
2018-11-12T07:22:09.501Z,14.13
2018-11-12T07:23:05.605Z,14.21
2018-11-12T07:24:02.249Z,14.19
2018-11-12T07:25:07.502Z,14.19
2018-11-12T07:26:09.177Z,14.16
2018-11-12T07:27:14.768Z,14.12
2018-11-12T07:28:43.502Z,14.16
2018-11-12T07:29:53.320Z,14.13
2018-11-12T07:34:41.324Z,14.27
2018-11-12T07:35:33.766Z,14.27
2018-11-12T07:36:28.913Z,14.36
2018-11-12T07:37:21.297Z,14.41
2018-11-12T07:38:17.847Z,14.3
2018-11-12T07:39:14.405Z,14.27
2018-11-12T07:40:14.992Z,14.39
2018-11-12T07:41:19.924Z,14.3
2018-11-12T07:42:18.827Z,14.3
2018-11-12T07:43:19.442Z,14.39
2018-11-12T07:44:17.711Z,14.39
2018-11-12T07:45:22.774Z,14.42
2018-11-12T07:47:51.272Z,14.24
2018-11-12T07:49:58.374Z,14.29
2018-11-12T07:50:39.389Z,14.3
2018-11-12T07:51:20.939Z,14.31
2018-11-12T07:52:01.656Z,14.2
2018-11-12T07:52:42.473Z,14.23
2018-11-12T07:53:23.297Z,14.16
2018-11-12T07:54:03.692Z,14.12
2018-11-12T07:54:44.344Z,14.02
2018-11-12T07:55:25.234Z,14.04
2018-11-12T07:56:05.638Z,13.99
2018-11-12T07:56:46.053Z,13.94
2018-11-12T07:57:26.756Z,13.86
2018-11-12T07:58:07.216Z,13.88
2018-11-12T07:58:47.780Z,13.88
2018-11-12T07:59:28.278Z,13.88
2018-11-12T08:00:08.689Z,13.88
2018-11-12T08:00:49.342Z,13.88
2018-11-12T08:01:30.310Z,13.93
2018-11-12T08:02:10.879Z,13.87
2018-11-12T08:02:51.410Z,13.81
2018-11-12T08:03:33.215Z,13.8
2018-11-12T08:04:13.749Z,13.63
2018-11-12T08:04:54.230Z,13.66
2018-11-12T08:05:34.800Z,13.66
2018-11-12T08:06:15.703Z,13.65
2018-11-12T08:06:56.117Z,13.65
2018-11-12T08:07:37.751Z,13.68
2018-11-12T08:08:17.952Z,13.68
2018-11-12T08:08:59.999Z,13.65
2018-11-12T08:09:40.756Z,13.71
2018-11-12T08:10:21.590Z,13.63
2018-11-12T08:11:02.113Z,13.61
2018-11-12T08:11:42.755Z,13.69
2018-11-12T08:12:23.701Z,13.71
2018-11-12T08:13:04.368Z,13.55
2018-11-12T08:13:45.139Z,13.65
2018-11-12T08:14:25.573Z,13.59
2018-11-12T08:15:06.959Z,13.61
2018-11-12T08:15:46.839Z,13.59
2018-11-12T08:16:27.327Z,13.61
2018-11-12T08:17:08.070Z,13.55
2018-11-12T08:17:48.478Z,13.59
2018-11-12T08:18:29.811Z,13.54
2018-11-12T08:19:10.772Z,13.54
2018-11-12T08:19:51.346Z,13.61
2018-11-12T08:20:32.144Z,13.59
2018-11-12T08:21:12.592Z,13.57
2018-11-12T08:21:53.395Z,13.55
2018-11-12T08:22:34.358Z,13.66
2018-11-12T08:23:14.862Z,13.69
2018-11-12T08:23:55.299Z,13.72
2018-11-12T08:24:35.742Z,13.73
2018-11-12T08:25:16.493Z,13.73
2018-11-12T08:25:57.315Z,13.81
2018-11-12T08:26:38.914Z,13.75
2018-11-12T08:27:23.096Z,13.81
2018-11-12T08:28:03.483Z,13.83
2018-11-12T08:28:44.191Z,13.83
2018-11-12T08:29:24.651Z,13.91
2018-11-12T08:30:06.318Z,14.02
2018-11-12T08:30:46.645Z,14.02
2018-11-12T08:31:32.176Z,14.06
2018-11-12T08:32:19.048Z,13.98
2018-11-12T08:33:04.965Z,13.98
2018-11-12T08:33:45.301Z,13.98
2018-11-12T08:34:26.566Z,13.91
2018-11-12T08:35:07.073Z,14.01
2018-11-12T08:35:47.914Z,13.94
2018-11-12T08:36:28.397Z,14.06
2018-11-12T08:37:08.929Z,14.11
2018-11-12T08:37:49.718Z,14.13
2018-11-12T08:38:30.213Z,14.06
2018-11-12T08:39:10.800Z,14.11
2018-11-12T08:39:51.269Z,14.12
2018-11-12T08:40:32.253Z,14.13
2018-11-12T08:41:12.870Z,14.21
2018-11-12T08:41:53.456Z,14.35
2018-11-12T08:42:34.737Z,14.53
2018-11-12T08:43:15.018Z,14.74
2018-11-12T08:43:55.507Z,14.78
2018-11-12T08:44:35.992Z,14.85
2018-11-12T08:45:16.494Z,14.9
2018-11-12T08:45:57.369Z,15.03
2018-11-12T08:46:38.329Z,15.13
2018-11-12T08:47:18.937Z,15.15
2018-11-12T08:47:59.614Z,15.22
2018-11-12T08:48:40.275Z,15.12
2018-11-12T08:49:20.728Z,15.12
2018-11-12T08:50:01.315Z,15.09
2018-11-12T08:50:41.811Z,15.03
2018-11-12T08:51:22.153Z,15.05
2018-11-12T08:52:02.980Z,14.95
2018-11-12T08:52:43.192Z,15
2018-11-12T08:53:24.791Z,14.91
2018-11-12T08:54:05.237Z,15
2018-11-12T08:54:45.516Z,14.97
2018-11-12T08:55:26.011Z,14.98
2018-11-12T08:56:08.095Z,14.94
2018-11-12T08:56:48.332Z,14.91
2018-11-12T08:57:28.630Z,14.87
2018-11-12T08:58:09.211Z,14.9
2018-11-12T08:58:49.417Z,14.9
2018-11-12T08:59:29.891Z,14.82
2018-11-12T09:00:10.362Z,14.82
2018-11-12T09:00:51.103Z,14.85
2018-11-12T09:01:31.459Z,14.93
2018-11-12T09:02:11.959Z,14.9
2018-11-12T09:02:52.352Z,14.93
2018-11-12T09:03:32.711Z,14.91
2018-11-12T09:04:13.367Z,14.94
2018-11-12T09:04:53.713Z,14.87
2018-11-12T09:05:34.108Z,15.01
2018-11-12T09:06:14.580Z,15.15
2018-11-12T09:06:55.015Z,15.2
2018-11-12T09:07:35.498Z,15.22
2018-11-12T09:08:16.126Z,15.3
2018-11-12T09:08:56.463Z,15.53
2018-11-12T09:09:36.934Z,15.59
2018-11-12T09:10:17.478Z,15.6
2018-11-12T09:10:57.923Z,15.64
2018-11-12T09:11:38.378Z,15.73
2018-11-12T09:12:18.782Z,15.86
2018-11-12T09:12:59.527Z,15.92
2018-11-12T09:13:40.040Z,15.92
2018-11-12T09:14:20.430Z,15.98
2018-11-12T09:15:00.838Z,16.07
2018-11-12T09:15:41.625Z,16.11
2018-11-12T09:16:22.059Z,16.23
2018-11-12T09:17:02.426Z,16.3
2018-11-12T09:17:43.051Z,16.32
2018-11-12T09:18:23.554Z,16.34
2018-11-12T09:19:03.988Z,16.5
2018-11-12T09:19:44.536Z,16.51
2018-11-12T09:20:24.969Z,16.52
2018-11-12T09:21:05.408Z,16.55
2018-11-12T09:21:45.900Z,16.52
2018-11-12T09:22:26.247Z,16.5
2018-11-12T09:23:07.160Z,16.51
2018-11-12T09:23:47.517Z,16.65
2018-11-12T09:24:28.083Z,16.72
2018-11-12T09:25:08.397Z,16.96
2018-11-12T09:25:48.805Z,16.9
2018-11-12T09:26:29.291Z,16.91
2018-11-12T09:27:09.849Z,16.81
2018-11-12T09:27:50.265Z,16.78
2018-11-12T09:28:30.684Z,16.69
2018-11-12T09:29:11.156Z,16.85
2018-11-12T09:29:51.582Z,16.85
2018-11-12T09:30:31.889Z,16.91
2018-11-12T09:31:14.130Z,16.96
2018-11-12T09:31:52.837Z,16.92
2018-11-12T09:32:33.417Z,16.92
2018-11-12T09:33:13.709Z,17
2018-11-12T09:33:54.141Z,16.96
2018-11-12T09:34:34.565Z,16.95
2018-11-12T09:35:15.014Z,17.09
2018-11-12T09:35:55.443Z,17.2
2018-11-12T09:36:35.933Z,17.24
2018-11-12T09:37:16.279Z,17.36
2018-11-12T09:37:56.736Z,17.49
2018-11-12T09:38:37.292Z,17.62
2018-11-12T09:39:17.629Z,17.73
2018-11-12T09:39:58.185Z,17.89
2018-11-12T09:40:38.454Z,18.17
2018-11-12T09:41:18.977Z,18.25
2018-11-12T09:41:59.320Z,18.38
2018-11-12T09:42:39.749Z,18.57
2018-11-12T09:43:20.209Z,18.83
2018-11-12T09:44:00.630Z,19.01
2018-11-12T09:44:41.029Z,19.23
2018-11-12T09:45:21.496Z,19.28
2018-11-12T09:46:01.901Z,19.49
2018-11-12T09:46:42.347Z,19.8
2018-11-12T09:47:23.030Z,19.94
2018-11-12T09:48:03.637Z,20.08
2018-11-12T09:48:44.113Z,20.2
2018-11-12T09:49:25.324Z,20.31
2018-11-12T09:50:05.397Z,20.46
2018-11-12T09:50:45.943Z,20.44
2018-11-12T09:51:26.416Z,20.51
2018-11-12T09:52:06.981Z,20.61
2018-11-12T09:52:47.464Z,20.68
2018-11-12T09:53:28.349Z,20.72
2018-11-12T09:54:08.751Z,20.61
2018-11-12T09:54:49.242Z,20.53
2018-11-12T09:55:30.389Z,20.4
2018-11-12T09:56:10.761Z,20.25
2018-11-12T09:56:51.353Z,20.3
2018-11-12T09:57:31.821Z,20.27
2018-11-12T09:58:12.304Z,20.16
2018-11-12T09:58:52.714Z,20.13
2018-11-12T09:59:33.096Z,20.1
2018-11-12T10:00:13.686Z,20.08
2018-11-12T10:00:54.413Z,20.02
2018-11-12T10:01:35.014Z,19.98
2018-11-12T10:02:15.416Z,19.94
2018-11-12T10:02:56.208Z,19.85
2018-11-12T10:03:37.401Z,19.86
2018-11-12T10:04:16.838Z,19.86
2018-11-12T10:04:59.048Z,19.78
2018-11-12T10:05:39.528Z,19.7
2018-11-12T10:06:19.708Z,19.72
2018-11-12T10:07:00.817Z,19.58
2018-11-12T10:07:40.699Z,19.52
2018-11-12T10:08:21.838Z,19.58
2018-11-12T10:09:02.918Z,19.46
2018-11-12T10:09:42.432Z,19.52
2018-11-12T10:10:23.447Z,19.4
2018-11-12T10:11:04.436Z,19.49
2018-11-12T10:11:45.650Z,19.47
2018-11-12T10:12:27.312Z,19.5
2018-11-12T10:13:08.033Z,19.45
2018-11-12T10:13:48.114Z,19.35
2018-11-12T10:14:27.632Z,19.28
2018-11-12T10:15:09.745Z,19.27
2018-11-12T10:15:50.274Z,19.25
2018-11-12T10:16:30.083Z,19.31
2018-11-12T10:17:10.779Z,19.32
2018-11-12T10:17:51.238Z,19.38
2018-11-12T10:18:28.979Z,19.32
2018-11-12T10:19:10.551Z,19.27
2018-11-12T10:19:50.267Z,19.35
2018-11-12T10:20:31.530Z,19.35
2018-11-12T10:21:11.994Z,19.27
2018-11-12T10:21:52.878Z,19.28
2018-11-12T10:22:33.289Z,19.28
2018-11-12T10:23:14.002Z,19.23
2018-11-12T10:23:54.488Z,19.05
2018-11-12T10:24:35.039Z,19.12
2018-11-12T10:25:15.521Z,19.02
2018-11-12T10:25:56.321Z,19.07
2018-11-12T10:26:36.714Z,18.97
2018-11-12T10:27:17.247Z,19.02